createdAt,value
2022-09-06T00:03:10.541Z,0.68
2022-09-06T00:08:14.791Z,0.60
2022-09-06T00:13:17.271Z,0.60
2022-09-06T00:18:19.980Z,0.60
2022-09-06T00:23:22.519Z,0.60
2022-09-06T00:28:24.984Z,0.80
2022-09-06T00:33:27.478Z,0.70
2022-09-06T00:38:29.924Z,0.70
2022-09-06T00:43:33.103Z,0.80
2022-09-06T00:48:38.151Z,0.65
2022-09-06T00:53:40.552Z,0.77
2022-09-06T00:58:43.436Z,0.70
2022-09-06T01:03:45.837Z,0.88
2022-09-06T01:09:10.439Z,0.80
2022-09-06T01:14:21.770Z,0.95
2022-09-06T01:19:45.447Z,0.77
2022-09-06T01:24:50.819Z,1.00
2022-09-06T01:30:02.569Z,0.63
2022-09-06T01:35:50.907Z,1.10
2022-09-06T01:40:53.343Z,1.00
2022-09-06T01:46:07.302Z,1.02
2022-09-06T01:51:24.689Z,0.80
2022-09-06T01:57:02.187Z,0.98
2022-09-06T02:02:10.990Z,1.10
2022-09-06T02:07:24.763Z,1.08
2022-09-06T02:12:29.853Z,0.98
2022-09-06T02:17:35.749Z,1.00
2022-09-06T02:22:41.618Z,0.85
2022-09-06T02:27:44.075Z,0.80
2022-09-06T02:32:57.451Z,1.00
2022-09-06T02:37:59.909Z,0.98
2022-09-06T02:43:02.435Z,0.90
2022-09-06T02:48:05.053Z,1.00
2022-09-06T02:53:13.113Z,0.80
2022-09-06T02:58:16.158Z,0.68
2022-09-06T03:03:19.195Z,1.08
2022-09-06T03:08:25.742Z,1.42
2022-09-06T03:13:28.485Z,1.00
2022-09-06T03:18:32.104Z,1.08
2022-09-06T03:23:34.656Z,0.90
2022-09-06T03:28:37.469Z,1.40
2022-09-06T03:33:39.917Z,1.10
2022-09-06T03:38:42.257Z,1.08
2022-09-06T03:43:44.643Z,1.35
2022-09-06T03:48:47.295Z,1.08
2022-09-06T03:53:50.012Z,1.08
2022-09-06T03:58:52.461Z,1.00
2022-09-06T04:03:54.865Z,1.40
2022-09-06T04:08:57.347Z,1.05
2022-09-06T04:13:59.834Z,1.27
2022-09-06T04:19:04.096Z,1.00
2022-09-06T04:24:07.101Z,0.80
2022-09-06T04:29:09.773Z,1.33
2022-09-06T04:34:12.210Z,1.30
2022-09-06T04:39:14.720Z,1.20
2022-09-06T04:44:17.188Z,1.10
2022-09-06T04:49:19.523Z,1.50
2022-09-06T04:54:21.947Z,1.73
2022-09-06T04:59:24.380Z,1.30
2022-09-06T05:04:27.037Z,2.80
2022-09-06T05:09:29.543Z,3.13
2022-09-06T05:14:32.065Z,2.38
2022-09-06T05:19:34.479Z,2.50
2022-09-06T05:24:36.951Z,3.25
2022-09-06T05:29:39.945Z,2.38
2022-09-06T05:34:42.338Z,2.17
2022-09-06T05:39:44.745Z,1.85
2022-09-06T05:44:47.223Z,1.85
2022-09-06T05:49:49.876Z,2.80
2022-09-06T05:54:52.370Z,2.72
2022-09-06T05:59:55.044Z,2.30
2022-09-06T06:04:58.415Z,2.28
2022-09-06T06:10:00.853Z,1.80
2022-09-06T06:15:05.871Z,2.22
2022-09-06T06:20:09.034Z,2.22
2022-09-06T06:25:12.671Z,2.20
2022-09-06T06:30:18.557Z,2.90
2022-09-06T06:35:21.089Z,2.65
2022-09-06T06:40:23.526Z,2.72
2022-09-06T06:45:26.833Z,2.72
2022-09-06T06:50:29.585Z,3.22
2022-09-06T06:55:32.123Z,2.45
2022-09-06T07:00:34.580Z,3.07
2022-09-06T07:11:01.089Z,1.83
2022-09-06T07:16:24.259Z,1.80
2022-09-06T07:26:38.467Z,1.30
2022-09-06T07:37:04.184Z,1.70
2022-09-06T07:42:06.841Z,1.30
2022-09-06T07:57:55.360Z,1.60
2022-09-06T08:02:57.918Z,1.00
2022-09-06T08:13:23.015Z,1.15
2022-09-06T08:18:25.405Z,1.10
2022-09-06T08:23:27.872Z,1.40
2022-09-06T08:28:30.438Z,1.00
2022-09-06T08:33:33.028Z,1.00
2022-09-06T08:38:35.879Z,1.17
2022-09-06T08:43:38.886Z,1.30
2022-09-06T08:48:41.325Z,1.73
2022-09-06T08:53:51.696Z,1.15
2022-09-06T08:59:11.567Z,1.25
2022-09-06T09:04:19.263Z,1.30
2022-09-06T09:09:21.848Z,1.20
2022-09-06T09:14:29.214Z,1.00
2022-09-06T09:19:36.675Z,0.93
2022-09-06T09:24:39.299Z,1.00
2022-09-06T09:35:18.856Z,1.30
2022-09-06T09:40:24.361Z,1.02
2022-09-06T09:45:30.613Z,0.90
2022-09-06T09:50:35.358Z,0.70
2022-09-06T09:55:38.797Z,0.98
2022-09-06T10:00:43.354Z,1.02
2022-09-06T10:06:02.717Z,1.10
2022-09-06T10:11:05.678Z,0.88
2022-09-06T10:16:08.755Z,0.80
2022-09-06T10:21:16.163Z,1.00
2022-09-06T10:26:49.611Z,0.75
2022-09-06T10:32:01.602Z,0.90
2022-09-06T10:37:48.836Z,0.93
2022-09-06T10:42:59.286Z,0.65
2022-09-06T10:48:04.718Z,0.80
2022-09-06T10:53:22.740Z,0.98
2022-09-06T11:04:04.509Z,0.60
2022-09-06T11:09:17.406Z,1.20
2022-09-06T11:14:22.646Z,0.63
2022-09-06T11:19:29.764Z,0.80
2022-09-06T11:25:02.692Z,1.00
2022-09-06T11:30:06.914Z,0.70
2022-09-06T11:35:25.773Z,0.95
2022-09-06T11:40:36.575Z,0.60
2022-09-06T11:45:49.520Z,1.10
2022-09-06T11:50:54.983Z,1.73
2022-09-06T11:56:00.491Z,0.68
2022-09-06T12:01:19.002Z,0.90
2022-09-06T12:06:21.425Z,0.80
2022-09-06T12:11:41.848Z,0.77
2022-09-06T12:17:00.400Z,0.65
2022-09-06T12:22:02.931Z,0.85
2022-09-06T12:27:26.989Z,0.68
2022-09-06T12:32:38.437Z,0.90
2022-09-06T12:38:01.912Z,0.93
2022-09-06T12:43:05.591Z,1.75
2022-09-06T12:48:11.522Z,1.90
2022-09-06T12:53:24.459Z,1.50
2022-09-06T12:58:29.884Z,1.55
2022-09-06T13:03:58.779Z,1.30
2022-09-06T13:09:02.422Z,1.02
2022-09-06T13:14:23.664Z,1.00
2022-09-06T13:19:42.891Z,0.90
2022-09-06T13:24:47.752Z,1.50
2022-09-06T13:30:02.509Z,1.40
2022-09-06T13:35:05.313Z,1.13
2022-09-06T13:41:15.826Z,0.95
2022-09-06T13:46:19.871Z,0.95
2022-09-06T13:51:23.291Z,1.02
2022-09-06T13:56:25.676Z,0.80
2022-09-06T14:01:28.315Z,1.00
2022-09-06T14:06:36.110Z,1.10
2022-09-06T14:11:39.268Z,1.48
2022-09-06T14:16:41.727Z,0.90
2022-09-06T14:21:44.509Z,1.05
2022-09-06T14:26:46.991Z,1.48
2022-09-06T14:31:49.570Z,0.98
2022-09-06T14:36:52.308Z,1.60
2022-09-06T14:41:54.857Z,1.13
2022-09-06T14:46:58.389Z,0.85
2022-09-06T14:52:00.939Z,1.10
2022-09-06T14:57:03.657Z,1.10
2022-09-06T15:02:06.307Z,1.10
2022-09-06T15:07:10.377Z,1.10
2022-09-06T15:12:12.985Z,1.27
2022-09-06T15:17:18.642Z,0.93
2022-09-06T15:22:21.200Z,0.90
2022-09-06T15:27:23.637Z,0.88
2022-09-06T15:32:26.312Z,0.70
2022-09-06T15:37:28.699Z,0.80
2022-09-06T15:42:31.176Z,1.20
2022-09-06T15:47:35.445Z,4.70
2022-09-06T15:52:37.833Z,1.38
2022-09-06T15:57:40.490Z,1.40
2022-09-06T16:02:42.914Z,3.08
2022-09-06T16:07:45.307Z,0.82
2022-09-06T16:12:50.602Z,1.95
2022-09-06T16:17:54.211Z,1.40
2022-09-06T16:22:56.638Z,0.93
2022-09-06T16:27:59.077Z,1.10
2022-09-06T16:33:01.538Z,1.27
2022-09-06T16:38:07.259Z,1.00
2022-09-06T16:43:12.537Z,2.17
2022-09-06T16:48:14.972Z,1.92
2022-09-06T16:53:21.863Z,2.45
2022-09-06T16:58:24.627Z,2.92
2022-09-06T17:03:27.329Z,4.35
2022-09-06T17:08:32.405Z,2.58
2022-09-06T17:13:35.385Z,2.60
2022-09-06T17:18:38.371Z,2.83
2022-09-06T17:23:40.992Z,5.65
2022-09-06T17:28:43.793Z,2.65
2022-09-06T17:33:50.817Z,3.17
2022-09-06T17:38:59.357Z,2.15
2022-09-06T17:44:01.936Z,2.45
2022-09-06T17:49:05.456Z,2.45
2022-09-06T17:54:09.926Z,2.20
2022-09-06T17:59:14.655Z,2.47
2022-09-06T18:04:17.807Z,2.55
2022-09-06T18:09:21.563Z,3.13
2022-09-06T18:14:24.253Z,8.88
2022-09-06T18:19:28.057Z,2.35
2022-09-06T18:24:30.999Z,3.50
2022-09-06T18:29:33.796Z,4.25
2022-09-06T18:34:36.420Z,3.85
2022-09-06T18:39:39.838Z,3.63
2022-09-06T18:44:43.921Z,3.00
2022-09-06T18:49:47.689Z,2.78
2022-09-06T18:54:50.320Z,2.35
2022-09-06T18:59:52.840Z,2.50
2022-09-06T19:04:56.270Z,2.22
2022-09-06T19:09:59.005Z,1.80
2022-09-06T19:15:01.482Z,1.40
2022-09-06T19:20:04.774Z,2.03
2022-09-06T19:25:07.918Z,1.50
2022-09-06T19:30:11.220Z,1.40
2022-09-06T19:35:13.865Z,2.17
2022-09-06T19:40:16.760Z,1.98
2022-09-06T19:45:19.603Z,2.05
2022-09-06T19:50:22.339Z,1.50
2022-09-06T19:55:24.784Z,1.80
2022-09-06T20:00:31.320Z,1.80
2022-09-06T20:05:38.114Z,1.80
2022-09-06T20:10:55.014Z,1.80
2022-09-06T20:15:57.984Z,2.03
2022-09-06T20:21:00.497Z,1.85
2022-09-06T20:26:06.076Z,2.17
2022-09-06T20:31:16.695Z,1.60
2022-09-06T20:36:20.172Z,1.80
2022-09-06T20:41:24.708Z,1.88
2022-09-06T20:46:30.991Z,2.55
2022-09-06T20:51:35.424Z,2.25
2022-09-06T20:56:40.269Z,2.30
2022-09-06T21:01:45.014Z,2.17
2022-09-06T21:06:49.741Z,1.92
2022-09-06T21:11:55.434Z,2.37
2022-09-06T21:16:57.880Z,2.13
2022-09-06T21:22:00.332Z,2.17
2022-09-06T21:27:02.836Z,2.17
2022-09-06T21:32:05.369Z,2.40
2022-09-06T21:37:08.343Z,1.97
2022-09-06T21:42:11.236Z,2.65
2022-09-06T21:47:13.625Z,2.60
2022-09-06T21:52:16.226Z,2.13
2022-09-06T21:57:19.201Z,2.40
2022-09-06T22:02:21.989Z,2.80
2022-09-06T22:07:24.417Z,2.47
2022-09-06T22:12:26.928Z,2.77
2022-09-06T22:17:29.506Z,2.50
2022-09-06T22:22:31.953Z,2.73
2022-09-06T22:27:37.697Z,2.20
2022-09-06T22:32:40.408Z,2.80
2022-09-06T22:37:43.152Z,2.53
2022-09-06T22:42:45.965Z,2.53
2022-09-06T22:47:49.502Z,3.03
2022-09-06T22:52:51.976Z,3.30
2022-09-06T22:57:54.475Z,2.13
2022-09-06T23:02:56.882Z,2.47
2022-09-06T23:08:01.707Z,3.00
2022-09-06T23:13:04.118Z,2.70
2022-09-06T23:18:06.791Z,3.00
2022-09-06T23:23:09.460Z,2.57
2022-09-06T23:28:11.861Z,2.47
2022-09-06T23:33:14.336Z,2.23
2022-09-06T23:38:16.724Z,2.30
2022-09-06T23:43:19.221Z,2.67
2022-09-06T23:48:23.036Z,2.53
2022-09-06T23:53:25.577Z,3.20
2022-09-06T23:58:28.423Z,3.60
